createdAt,value
2022-08-17T00:04:29.091Z,1000.1
2022-08-17T00:09:35.183Z,1000.1
2022-08-17T00:14:41.268Z,1000.1
2022-08-17T00:19:47.377Z,1000.2
2022-08-17T00:24:52.466Z,1000.3
2022-08-17T00:29:58.582Z,1000.3
2022-08-17T00:35:04.671Z,1000.3
2022-08-17T00:40:10.751Z,1000.4
2022-08-17T00:45:16.854Z,1000.4
2022-08-17T00:50:22.953Z,1000.4
2022-08-17T00:55:29.052Z,1000.5
2022-08-17T01:00:35.149Z,1000.5
2022-08-17T01:05:41.225Z,1000.4
2022-08-17T01:10:47.323Z,1000.4
2022-08-17T01:15:53.423Z,1000.4
2022-08-17T01:20:59.515Z,1000.5
2022-08-17T01:26:05.616Z,1000.4
2022-08-17T01:31:10.717Z,1000.5
2022-08-17T01:36:16.805Z,1000.5
2022-08-17T01:41:22.899Z,1000.5
2022-08-17T01:46:29.003Z,1000.5
2022-08-17T01:51:35.089Z,1000.5
2022-08-17T01:56:41.194Z,1000.5
2022-08-17T02:01:47.273Z,1000.4
2022-08-17T02:06:53.374Z,1000.4
2022-08-17T02:11:59.473Z,1000.4
2022-08-17T02:17:05.564Z,1000.4
2022-08-17T02:22:11.668Z,1000.4
2022-08-17T02:27:17.755Z,1000.4
2022-08-17T02:32:23.844Z,1000.4
2022-08-17T02:37:28.959Z,1000.4
2022-08-17T02:42:35.052Z,1000.4
2022-08-17T02:47:41.148Z,1000.3
2022-08-17T02:52:47.243Z,1000.3
2022-08-17T02:57:53.330Z,1000.4
2022-08-17T03:02:59.424Z,1000.3
2022-08-17T03:08:05.532Z,1000.3
2022-08-17T03:13:11.616Z,1000.3
2022-08-17T03:18:17.726Z,1000.4
2022-08-17T03:23:23.820Z,1000.4
2022-08-17T03:28:29.904Z,1000.4
2022-08-17T03:33:35.990Z,1000.3
2022-08-17T03:38:42.102Z,1000.3
2022-08-17T03:43:47.207Z,1000.5
2022-08-17T03:48:53.297Z,1000.4
2022-08-17T03:53:59.384Z,1000.4
2022-08-17T03:59:05.474Z,1000.3
2022-08-17T04:04:11.586Z,1000.3
2022-08-17T04:09:17.683Z,1000.4
2022-08-17T04:14:23.766Z,1000.4
2022-08-17T04:19:29.852Z,1000.5
2022-08-17T04:24:35.967Z,1000.5
2022-08-17T04:29:42.060Z,1000.5
2022-08-17T04:34:48.146Z,1000.6
2022-08-17T04:39:54.238Z,1000.6
2022-08-17T04:45:00.556Z,1000.6
2022-08-17T04:50:05.674Z,1000.6
2022-08-17T04:55:11.773Z,1000.8
2022-08-17T05:00:17.847Z,1000.8
2022-08-17T05:05:23.946Z,1000.8
2022-08-17T05:10:30.042Z,1000.9
2022-08-17T05:15:36.137Z,1000.9
2022-08-17T05:20:42.246Z,1001
2022-08-17T05:25:48.320Z,1001
2022-08-17T05:30:54.443Z,1001
2022-08-17T05:36:00.527Z,1001
2022-08-17T05:41:06.620Z,1001
2022-08-17T05:46:12.714Z,1001.1
2022-08-17T05:51:18.794Z,1001.1
2022-08-17T05:56:23.908Z,1001.1
2022-08-17T06:01:30.034Z,1001.2
2022-08-17T06:06:36.102Z,1001.2
2022-08-17T06:11:42.200Z,1001.3
2022-08-17T06:16:48.292Z,1001.4
2022-08-17T06:21:54.405Z,1001.4
2022-08-17T06:27:00.468Z,1001.3
2022-08-17T06:32:06.561Z,1001.2
2022-08-17T06:37:12.662Z,1001.3
2022-08-17T06:42:18.753Z,1001.3
2022-08-17T06:47:24.868Z,1001.4
2022-08-17T06:52:30.956Z,1001.5
2022-08-17T06:57:37.043Z,1001.3
2022-08-17T07:02:42.165Z,1001.3
2022-08-17T07:07:48.242Z,1001.3
2022-08-17T07:12:54.343Z,1001.3
2022-08-17T07:18:00.423Z,1001.3
2022-08-17T07:23:06.513Z,1001.3
2022-08-17T07:28:12.621Z,1001.2
2022-08-17T07:33:18.713Z,1001.1
2022-08-17T07:38:24.819Z,1001.2
2022-08-17T07:43:30.894Z,1001.2
2022-08-17T07:48:37.004Z,1001.1
2022-08-17T07:53:43.097Z,1001.1
2022-08-17T07:58:49.189Z,1001.1
2022-08-17T08:03:55.289Z,1001.1
2022-08-17T08:09:00.393Z,1001.1
2022-08-17T08:14:06.497Z,1001.1
2022-08-17T08:19:12.580Z,1001.1
2022-08-17T08:24:18.685Z,1001.2
2022-08-17T08:29:24.770Z,1001.2
2022-08-17T08:34:30.860Z,1001.2
2022-08-17T08:39:36.959Z,1001.2
2022-08-17T08:44:43.060Z,1001.2
2022-08-17T08:49:49.136Z,1001.2
2022-08-17T08:54:55.249Z,1001.2
2022-08-17T09:00:01.339Z,1001.1
2022-08-17T09:05:07.431Z,1001.1
2022-08-17T09:10:13.513Z,1001.2
2022-08-17T09:15:18.638Z,1001.1
2022-08-17T09:20:24.727Z,1001.1
2022-08-17T09:25:30.834Z,1001.1
2022-08-17T09:30:36.931Z,1000.9
2022-08-17T09:35:43.012Z,1000.8
2022-08-17T09:40:49.107Z,1000.9
2022-08-17T09:45:55.213Z,1000.9
2022-08-17T09:51:01.307Z,1000.7
2022-08-17T09:56:07.422Z,1000.6
2022-08-17T10:01:13.506Z,1000.6
2022-08-17T10:06:19.607Z,1000.5
2022-08-17T10:11:25.703Z,1000.5
2022-08-17T10:16:31.806Z,1000.4
2022-08-17T10:21:36.926Z,1000.3
2022-08-17T10:26:43.008Z,1000.2
2022-08-17T10:31:49.098Z,1000.1
2022-08-17T10:36:55.214Z,1000.1
2022-08-17T10:42:01.296Z,1000.1
2022-08-17T10:47:07.398Z,1000.1
2022-08-17T10:52:13.492Z,1000
2022-08-17T10:57:19.588Z,1000.1
2022-08-17T11:02:25.690Z,1000.1
2022-08-17T11:07:31.777Z,1000.1
2022-08-17T11:12:37.901Z,1000.2
2022-08-17T11:17:43.988Z,1000.1
2022-08-17T11:22:50.086Z,999.9
2022-08-17T11:27:55.212Z,999.9
2022-08-17T11:33:01.296Z,999.8
2022-08-17T11:38:07.397Z,999.7
2022-08-17T11:43:13.502Z,999.7
2022-08-17T11:48:19.599Z,999.7
2022-08-17T11:53:25.716Z,999.6
2022-08-17T11:58:31.778Z,999.7
2022-08-17T12:03:37.902Z,999.6
2022-08-17T12:08:43.971Z,999.6
2022-08-17T12:13:50.092Z,999.6
2022-08-17T12:18:56.196Z,999.7
2022-08-17T12:24:02.292Z,999.7
2022-08-17T12:29:08.368Z,999.7
2022-08-17T12:34:13.501Z,999.7
2022-08-17T12:39:19.603Z,999.8
2022-08-17T12:44:25.699Z,999.7
2022-08-17T12:49:31.783Z,999.7
2022-08-17T12:54:37.893Z,999.6
2022-08-17T12:59:43.968Z,999.5
2022-08-17T13:04:50.063Z,999.5
2022-08-17T13:09:56.177Z,999.5
2022-08-17T13:15:02.256Z,999.4
2022-08-17T13:20:08.354Z,999.3
2022-08-17T13:25:14.444Z,999.2
2022-08-17T13:30:20.555Z,999.2
2022-08-17T13:35:26.647Z,999.2
2022-08-17T13:40:31.745Z,999.1
2022-08-17T13:45:37.853Z,999.1
2022-08-17T13:50:44.005Z,999.2
2022-08-17T13:55:50.114Z,999.2
2022-08-17T14:00:56.210Z,999.2
2022-08-17T14:06:02.303Z,999.2
2022-08-17T14:11:08.390Z,999.1
2022-08-17T14:16:14.484Z,999.2
2022-08-17T14:21:20.580Z,999.1
2022-08-17T14:26:26.681Z,999.2
2022-08-17T14:31:32.770Z,999.1
2022-08-17T14:36:38.866Z,999.1
2022-08-17T14:41:44.964Z,999
2022-08-17T14:46:50.077Z,999
2022-08-17T14:51:56.172Z,998.9
2022-08-17T14:57:02.263Z,998.9
2022-08-17T15:02:08.360Z,998.9
2022-08-17T15:07:14.447Z,998.9
2022-08-17T15:12:20.541Z,998.8
2022-08-17T15:17:26.642Z,998.9
2022-08-17T15:22:32.750Z,998.7
2022-08-17T15:27:38.833Z,998.7
2022-08-17T15:32:44.938Z,998.7
2022-08-17T15:37:51.047Z,998.6
2022-08-17T15:42:57.144Z,998.6
2022-08-17T15:48:03.214Z,998.6
2022-08-17T15:53:08.336Z,998.6
2022-08-17T15:58:14.437Z,998.6
2022-08-17T16:03:20.520Z,998.5
2022-08-17T16:08:26.623Z,998.6
2022-08-17T16:13:32.704Z,998.6
2022-08-17T16:18:38.805Z,998.5
2022-08-17T16:23:43.920Z,998.4
2022-08-17T16:28:50.019Z,998.4
2022-08-17T16:33:56.113Z,998.4
2022-08-17T16:39:02.214Z,998.4
2022-08-17T16:44:08.295Z,998.3
2022-08-17T16:49:14.388Z,998.3
2022-08-17T16:54:20.484Z,998.4
2022-08-17T16:59:26.593Z,998.4
2022-08-17T17:04:32.717Z,998.4
2022-08-17T17:09:38.778Z,998.4
2022-08-17T17:14:44.869Z,998.4
2022-08-17T17:19:50.961Z,998.3
2022-08-17T17:24:57.061Z,998.3
2022-08-17T17:30:02.171Z,998.4
2022-08-17T17:35:08.273Z,998.4
2022-08-17T17:40:14.367Z,998.5
2022-08-17T17:45:20.473Z,998.5
2022-08-17T17:50:26.552Z,998.5
2022-08-17T17:55:32.647Z,998.4
2022-08-17T18:00:38.744Z,998.5
2022-08-17T18:05:44.843Z,998.6
2022-08-17T18:10:50.954Z,998.7
2022-08-17T18:15:57.028Z,998.7
2022-08-17T18:21:03.116Z,998.8
2022-08-17T18:26:09.224Z,998.8
2022-08-17T18:31:15.317Z,998.7
2022-08-17T18:36:20.428Z,998.7
2022-08-17T18:41:26.512Z,998.7
2022-08-17T18:46:32.604Z,998.8
2022-08-17T18:51:38.701Z,998.7
2022-08-17T18:56:44.809Z,998.8
2022-08-17T19:01:50.897Z,998.8
2022-08-17T19:06:56.988Z,998.8
2022-08-17T19:12:03.091Z,998.9
2022-08-17T19:17:09.183Z,998.9
2022-08-17T19:22:15.275Z,998.8
2022-08-17T19:27:21.431Z,998.7
2022-08-17T19:32:27.457Z,998.7
2022-08-17T19:37:33.559Z,998.8
2022-08-17T19:42:38.660Z,998.7
2022-08-17T19:47:44.766Z,998.7
2022-08-17T19:52:50.839Z,998.9
2022-08-17T19:57:56.949Z,998.8
2022-08-17T20:03:03.038Z,998.8
2022-08-17T20:08:09.129Z,998.8
2022-08-17T20:13:15.221Z,998.8
2022-08-17T20:18:21.322Z,998.8
2022-08-17T20:23:27.426Z,998.9
2022-08-17T20:28:33.533Z,998.9
2022-08-17T20:33:39.610Z,998.9
2022-08-17T20:38:45.694Z,999.1
2022-08-17T20:43:51.789Z,999.2
2022-08-17T20:48:56.899Z,999.1
2022-08-17T20:54:03.000Z,999.2
2022-08-17T20:59:09.119Z,999.1
2022-08-17T21:04:15.196Z,999.1
2022-08-17T21:09:21.285Z,999.1
2022-08-17T21:14:27.418Z,999.1
2022-08-17T21:19:33.468Z,999.1
2022-08-17T21:24:39.565Z,999.1
2022-08-17T21:29:45.667Z,999.2
2022-08-17T21:34:51.776Z,999.2
2022-08-17T21:39:57.862Z,999.2
2022-08-17T21:45:03.946Z,999.3
2022-08-17T21:50:10.033Z,999.3
2022-08-17T21:55:15.149Z,999.3
2022-08-17T22:00:21.250Z,999.3
2022-08-17T22:05:27.334Z,999.5
2022-08-17T22:10:33.428Z,999.4
2022-08-17T22:15:39.528Z,999.5
2022-08-17T22:20:45.622Z,999.5
2022-08-17T22:25:51.716Z,999.5
2022-08-17T22:30:57.811Z,999.6
2022-08-17T22:36:03.891Z,999.6
2022-08-17T22:41:09.992Z,999.6
2022-08-17T22:46:16.071Z,999.6
2022-08-17T22:51:22.185Z,999.7
2022-08-17T22:56:28.283Z,999.6
2022-08-17T23:01:33.406Z,999.7
2022-08-17T23:06:39.503Z,999.6
2022-08-17T23:11:45.588Z,999.7
2022-08-17T23:16:51.671Z,999.6
2022-08-17T23:21:57.765Z,999.7
2022-08-17T23:27:03.857Z,999.6
2022-08-17T23:32:09.958Z,999.7
2022-08-17T23:37:16.055Z,999.7
2022-08-17T23:47:28.239Z,999.7
2022-08-17T23:52:34.326Z,999.6
2022-08-17T23:57:40.427Z,999.6
